sensor_id;sensor_type;location;lat;lon;timestamp;P1;durP1;ratioP1;P2;durP2;ratioP2
77276;SDS011;66330;52.166;9.978;2023-02-28T00:00:10;7.13;;;6.07;;
77276;SDS011;66330;52.166;9.978;2023-02-28T00:02:39;6.10;;;5.50;;
77276;SDS011;66330;52.166;9.978;2023-02-28T00:05:06;6.50;;;5.80;;
77276;SDS011;66330;52.166;9.978;2023-02-28T00:07:33;7.50;;;6.30;;
77276;SDS011;66330;52.166;9.978;2023-02-28T00:09:58;6.03;;;5.23;;
77276;SDS011;66330;52.166;9.978;2023-02-28T00:12:25;7.27;;;5.33;;
77276;SDS011;66330;52.166;9.978;2023-02-28T00:14:51;5.93;;;5.23;;
77276;SDS011;66330;52.166;9.978;2023-02-28T00:17:17;5.40;;;4.90;;
77276;SDS011;66330;52.166;9.978;2023-02-28T00:19:45;5.70;;;4.87;;
77276;SDS011;66330;52.166;9.978;2023-02-28T00:22:19;5.20;;;4.70;;
77276;SDS011;66330;52.166;9.978;2023-02-28T00:24:45;5.23;;;4.73;;
77276;SDS011;66330;52.166;9.978;2023-02-28T00:27:12;5.73;;;5.20;;
77276;SDS011;66330;52.166;9.978;2023-02-28T00:29:38;5.40;;;4.90;;
77276;SDS011;66330;52.166;9.978;2023-02-28T00:32:05;6.83;;;5.90;;
77276;SDS011;66330;52.166;9.978;2023-02-28T00:34:31;5.70;;;4.47;;
77276;SDS011;66330;52.166;9.978;2023-02-28T00:37:02;6.23;;;5.30;;
77276;SDS011;66330;52.166;9.978;2023-02-28T00:39:29;5.10;;;4.43;;
77276;SDS011;66330;52.166;9.978;2023-02-28T00:41:55;6.03;;;4.97;;
77276;SDS011;66330;52.166;9.978;2023-02-28T00:44:20;5.40;;;4.90;;
77276;SDS011;66330;52.166;9.978;2023-02-28T00:46:46;4.37;;;3.97;;
77276;SDS011;66330;52.166;9.978;2023-02-28T00:49:13;5.17;;;4.77;;
77276;SDS011;66330;52.166;9.978;2023-02-28T00:51:39;5.90;;;5.23;;
77276;SDS011;66330;52.166;9.978;2023-02-28T00:54:05;5.17;;;4.67;;
77276;SDS011;66330;52.166;9.978;2023-02-28T00:56:30;5.63;;;5.13;;
77276;SDS011;66330;52.166;9.978;2023-02-28T00:58:56;5.53;;;5.03;;
77276;SDS011;66330;52.166;9.978;2023-02-28T01:01:23;5.47;;;4.87;;
77276;SDS011;66330;52.166;9.978;2023-02-28T01:03:49;5.97;;;4.40;;
77276;SDS011;66330;52.166;9.978;2023-02-28T01:06:14;8.17;;;4.47;;
77276;SDS011;66330;52.166;9.978;2023-02-28T01:08:40;7.23;;;5.30;;
77276;SDS011;66330;52.166;9.978;2023-02-28T01:11:09;5.40;;;4.90;;
77276;SDS011;66330;52.166;9.978;2023-02-28T01:13:36;5.80;;;4.97;;
77276;SDS011;66330;52.166;9.978;2023-02-28T01:16:02;5.57;;;5.10;;
77276;SDS011;66330;52.166;9.978;2023-02-28T01:18:28;5.60;;;5.10;;
77276;SDS011;66330;52.166;9.978;2023-02-28T01:20:54;5.40;;;4.90;;
77276;SDS011;66330;52.166;9.978;2023-02-28T01:23:20;5.40;;;4.80;;
77276;SDS011;66330;52.166;9.978;2023-02-28T01:25:48;6.87;;;5.87;;
77276;SDS011;66330;52.166;9.978;2023-02-28T01:28:15;5.57;;;5.03;;
77276;SDS011;66330;52.166;9.978;2023-02-28T01:30:41;5.00;;;4.53;;
77276;SDS011;66330;52.166;9.978;2023-02-28T01:33:06;6.30;;;5.20;;
77276;SDS011;66330;52.166;9.978;2023-02-28T01:35:32;7.70;;;5.90;;
77276;SDS011;66330;52.166;9.978;2023-02-28T01:37:59;6.17;;;5.57;;
77276;SDS011;66330;52.166;9.978;2023-02-28T01:40:24;5.90;;;5.33;;
77276;SDS011;66330;52.166;9.978;2023-02-28T01:42:50;6.53;;;5.17;;
77276;SDS011;66330;52.166;9.978;2023-02-28T01:45:22;5.37;;;4.97;;
77276;SDS011;66330;52.166;9.978;2023-02-28T01:47:50;9.33;;;5.60;;
77276;SDS011;66330;52.166;9.978;2023-02-28T01:50:24;5.73;;;5.10;;
77276;SDS011;66330;52.166;9.978;2023-02-28T01:52:53;6.80;;;4.70;;
77276;SDS011;66330;52.166;9.978;2023-02-28T01:55:21;5.50;;;5.00;;
77276;SDS011;66330;52.166;9.978;2023-02-28T01:57:50;7.80;;;5.90;;
77276;SDS011;66330;52.166;9.978;2023-02-28T02:00:20;6.10;;;5.30;;
77276;SDS011;66330;52.166;9.978;2023-02-28T02:02:49;9.80;;;7.50;;
77276;SDS011;66330;52.166;9.978;2023-02-28T02:05:20;6.67;;;6.00;;
77276;SDS011;66330;52.166;9.978;2023-02-28T02:07:48;6.47;;;5.90;;
77276;SDS011;66330;52.166;9.978;2023-02-28T02:10:18;9.23;;;6.13;;
77276;SDS011;66330;52.166;9.978;2023-02-28T02:16:00;5.90;;;5.27;;
77276;SDS011;66330;52.166;9.978;2023-02-28T02:18:25;7.83;;;6.17;;
77276;SDS011;66330;52.166;9.978;2023-02-28T02:39:53;7.40;;;6.43;;
77276;SDS011;66330;52.166;9.978;2023-02-28T02:48:44;7.33;;;6.63;;
77276;SDS011;66330;52.166;9.978;2023-02-28T02:51:13;7.83;;;7.03;;
77276;SDS011;66330;52.166;9.978;2023-02-28T02:53:43;10.33;;;7.60;;
77276;SDS011;66330;52.166;9.978;2023-02-28T02:56:24;6.60;;;6.00;;
77276;SDS011;66330;52.166;9.978;2023-02-28T02:58:53;9.17;;;6.60;;
77276;SDS011;66330;52.166;9.978;2023-02-28T03:01:24;8.03;;;7.33;;
77276;SDS011;66330;52.166;9.978;2023-02-28T03:03:57;8.33;;;7.43;;
77276;SDS011;66330;52.166;9.978;2023-02-28T03:06:25;6.70;;;6.10;;
77276;SDS011;66330;52.166;9.978;2023-02-28T03:08:51;6.90;;;6.20;;
77276;SDS011;66330;52.166;9.978;2023-02-28T03:11:17;6.73;;;6.13;;
77276;SDS011;66330;52.166;9.978;2023-02-28T03:20:00;8.60;;;7.57;;
77276;SDS011;66330;52.166;9.978;2023-02-28T03:22:37;7.90;;;5.97;;
77276;SDS011;66330;52.166;9.978;2023-02-28T03:36:17;7.43;;;6.73;;
77276;SDS011;66330;52.166;9.978;2023-02-28T03:38:48;7.60;;;6.80;;
77276;SDS011;66330;52.166;9.978;2023-02-28T03:41:16;7.73;;;6.60;;
77276;SDS011;66330;52.166;9.978;2023-02-28T03:43:56;6.30;;;5.70;;
77276;SDS011;66330;52.166;9.978;2023-02-28T03:46:27;7.23;;;6.50;;
77276;SDS011;66330;52.166;9.978;2023-02-28T03:49:12;6.77;;;6.17;;
77276;SDS011;66330;52.166;9.978;2023-02-28T03:51:43;6.63;;;5.70;;
77276;SDS011;66330;52.166;9.978;2023-02-28T03:54:19;6.90;;;6.00;;
77276;SDS011;66330;52.166;9.978;2023-02-28T03:59:59;6.80;;;5.63;;
77276;SDS011;66330;52.166;9.978;2023-02-28T04:02:29;5.87;;;5.27;;
77276;SDS011;66330;52.166;9.978;2023-02-28T04:04:55;5.93;;;5.43;;
77276;SDS011;66330;52.166;9.978;2023-02-28T04:07:20;6.80;;;6.10;;
77276;SDS011;66330;52.166;9.978;2023-02-28T04:09:46;6.13;;;5.53;;
77276;SDS011;66330;52.166;9.978;2023-02-28T04:12:13;6.77;;;6.17;;
77276;SDS011;66330;52.166;9.978;2023-02-28T04:14:39;5.20;;;4.80;;
77276;SDS011;66330;52.166;9.978;2023-02-28T04:17:04;6.53;;;5.93;;
77276;SDS011;66330;52.166;9.978;2023-02-28T04:19:30;7.20;;;5.40;;
77276;SDS011;66330;52.166;9.978;2023-02-28T04:21:55;7.50;;;6.50;;
77276;SDS011;66330;52.166;9.978;2023-02-28T04:24:22;5.90;;;5.30;;
77276;SDS011;66330;52.166;9.978;2023-02-28T04:26:50;5.70;;;5.00;;
77276;SDS011;66330;52.166;9.978;2023-02-28T04:29:25;5.80;;;5.03;;
77276;SDS011;66330;52.166;9.978;2023-02-28T04:31:53;7.70;;;5.40;;
77276;SDS011;66330;52.166;9.978;2023-02-28T04:34:20;5.10;;;4.60;;
77276;SDS011;66330;52.166;9.978;2023-02-28T04:36:48;5.17;;;4.77;;
77276;SDS011;66330;52.166;9.978;2023-02-28T04:39:15;6.60;;;5.67;;
77276;SDS011;66330;52.166;9.978;2023-02-28T04:41:43;8.20;;;5.23;;
77276;SDS011;66330;52.166;9.978;2023-02-28T04:44:09;5.80;;;5.30;;
77276;SDS011;66330;52.166;9.978;2023-02-28T04:46:35;8.30;;;5.67;;
77276;SDS011;66330;52.166;9.978;2023-02-28T04:49:01;9.20;;;6.37;;
77276;SDS011;66330;52.166;9.978;2023-02-28T04:51:26;7.87;;;6.27;;
77276;SDS011;66330;52.166;9.978;2023-02-28T04:53:52;6.27;;;5.67;;
77276;SDS011;66330;52.166;9.978;2023-02-28T04:56:18;7.00;;;6.40;;
77276;SDS011;66330;52.166;9.978;2023-02-28T04:58:44;10.63;;;6.63;;
77276;SDS011;66330;52.166;9.978;2023-02-28T05:03:50;7.63;;;6.50;;
77276;SDS011;66330;52.166;9.978;2023-02-28T05:06:16;8.17;;;7.33;;
77276;SDS011;66330;52.166;9.978;2023-02-28T05:08:42;10.90;;;9.80;;
77276;SDS011;66330;52.166;9.978;2023-02-28T05:13:48;7.27;;;6.57;;
77276;SDS011;66330;52.166;9.978;2023-02-28T05:16:17;7.90;;;7.03;;
77276;SDS011;66330;52.166;9.978;2023-02-28T05:18:43;10.13;;;5.50;;
77276;SDS011;66330;52.166;9.978;2023-02-28T05:21:21;6.90;;;5.70;;
77276;SDS011;66330;52.166;9.978;2023-02-28T05:23:49;6.03;;;5.43;;
77276;SDS011;66330;52.166;9.978;2023-02-28T05:26:15;7.70;;;6.87;;
77276;SDS011;66330;52.166;9.978;2023-02-28T05:28:41;14.57;;;11.77;;
77276;SDS011;66330;52.166;9.978;2023-02-28T05:31:07;8.33;;;7.53;;
77276;SDS011;66330;52.166;9.978;2023-02-28T05:33:35;6.47;;;5.87;;
77276;SDS011;66330;52.166;9.978;2023-02-28T05:36:01;7.40;;;5.87;;
77276;SDS011;66330;52.166;9.978;2023-02-28T05:38:27;5.50;;;5.00;;
77276;SDS011;66330;52.166;9.978;2023-02-28T05:40:52;7.63;;;6.03;;
77276;SDS011;66330;52.166;9.978;2023-02-28T05:43:18;5.53;;;5.00;;
77276;SDS011;66330;52.166;9.978;2023-02-28T05:45:44;6.00;;;5.40;;
77276;SDS011;66330;52.166;9.978;2023-02-28T05:48:09;10.27;;;5.60;;
77276;SDS011;66330;52.166;9.978;2023-02-28T05:50:35;5.53;;;5.00;;
77276;SDS011;66330;52.166;9.978;2023-02-28T05:53:01;8.93;;;5.40;;
77276;SDS011;66330;52.166;9.978;2023-02-28T05:55:26;5.10;;;4.60;;
77276;SDS011;66330;52.166;9.978;2023-02-28T05:57:52;6.77;;;6.10;;
77276;SDS011;66330;52.166;9.978;2023-02-28T06:00:18;10.73;;;6.50;;
77276;SDS011;66330;52.166;9.978;2023-02-28T06:02:45;6.87;;;5.43;;
77276;SDS011;66330;52.166;9.978;2023-02-28T06:05:13;8.07;;;5.73;;
77276;SDS011;66330;52.166;9.978;2023-02-28T06:07:40;7.23;;;6.53;;
77276;SDS011;66330;52.166;9.978;2023-02-28T06:10:06;7.43;;;6.53;;
77276;SDS011;66330;52.166;9.978;2023-02-28T06:12:32;7.27;;;6.00;;
77276;SDS011;66330;52.166;9.978;2023-02-28T06:14:58;8.93;;;7.50;;
77276;SDS011;66330;52.166;9.978;2023-02-28T06:17:24;18.83;;;7.43;;
77276;SDS011;66330;52.166;9.978;2023-02-28T06:19:51;6.37;;;5.70;;
77276;SDS011;66330;52.166;9.978;2023-02-28T06:22:16;7.20;;;6.50;;
77276;SDS011;66330;52.166;9.978;2023-02-28T06:24:42;7.07;;;6.40;;
77276;SDS011;66330;52.166;9.978;2023-02-28T06:27:08;8.47;;;7.37;;
77276;SDS011;66330;52.166;9.978;2023-02-28T06:29:34;7.67;;;6.80;;
77276;SDS011;66330;52.166;9.978;2023-02-28T06:32:00;14.77;;;7.07;;
77276;SDS011;66330;52.166;9.978;2023-02-28T06:34:26;7.67;;;6.87;;
77276;SDS011;66330;52.166;9.978;2023-02-28T06:36:53;16.13;;;7.07;;
77276;SDS011;66330;52.166;9.978;2023-02-28T06:39:19;9.67;;;6.80;;
77276;SDS011;66330;52.166;9.978;2023-02-28T06:41:45;7.43;;;6.73;;
77276;SDS011;66330;52.166;9.978;2023-02-28T06:44:14;11.97;;;6.83;;
77276;SDS011;66330;52.166;9.978;2023-02-28T06:46:40;12.20;;;8.43;;
77276;SDS011;66330;52.166;9.978;2023-02-28T06:49:08;7.67;;;6.83;;
77276;SDS011;66330;52.166;9.978;2023-02-28T06:51:34;8.77;;;7.87;;
77276;SDS011;66330;52.166;9.978;2023-02-28T06:54:01;8.60;;;7.80;;
77276;SDS011;66330;52.166;9.978;2023-02-28T06:56:26;9.30;;;7.70;;
77276;SDS011;66330;52.166;9.978;2023-02-28T06:58:52;11.40;;;8.80;;
77276;SDS011;66330;52.166;9.978;2023-02-28T07:01:18;11.70;;;8.10;;
77276;SDS011;66330;52.166;9.978;2023-02-28T07:03:44;9.63;;;8.63;;
77276;SDS011;66330;52.166;9.978;2023-02-28T07:06:10;11.10;;;9.90;;
77276;SDS011;66330;52.166;9.978;2023-02-28T07:08:36;10.87;;;8.73;;
77276;SDS011;66330;52.166;9.978;2023-02-28T07:11:02;10.30;;;8.63;;
77276;SDS011;66330;52.166;9.978;2023-02-28T07:13:28;13.73;;;8.07;;
77276;SDS011;66330;52.166;9.978;2023-02-28T07:15:58;10.50;;;9.40;;
77276;SDS011;66330;52.166;9.978;2023-02-28T07:18:25;9.80;;;8.80;;
77276;SDS011;66330;52.166;9.978;2023-02-28T07:20:52;8.63;;;7.40;;
77276;SDS011;66330;52.166;9.978;2023-02-28T07:23:17;10.90;;;8.30;;
77276;SDS011;66330;52.166;9.978;2023-02-28T07:25:43;12.87;;;8.67;;
77276;SDS011;66330;52.166;9.978;2023-02-28T07:28:10;9.63;;;7.47;;
77276;SDS011;66330;52.166;9.978;2023-02-28T07:30:36;9.50;;;7.80;;
77276;SDS011;66330;52.166;9.978;2023-02-28T07:33:02;8.20;;;7.50;;
77276;SDS011;66330;52.166;9.978;2023-02-28T07:35:28;9.40;;;8.20;;
77276;SDS011;66330;52.166;9.978;2023-02-28T07:37:54;10.43;;;9.10;;
77276;SDS011;66330;52.166;9.978;2023-02-28T07:40:21;9.90;;;8.10;;
77276;SDS011;66330;52.166;9.978;2023-02-28T07:42:47;12.03;;;8.67;;
77276;SDS011;66330;52.166;9.978;2023-02-28T07:45:13;12.00;;;8.77;;
77276;SDS011;66330;52.166;9.978;2023-02-28T07:47:39;13.47;;;9.00;;
77276;SDS011;66330;52.166;9.978;2023-02-28T07:50:06;10.90;;;9.67;;
77276;SDS011;66330;52.166;9.978;2023-02-28T07:52:34;10.37;;;9.40;;
77276;SDS011;66330;52.166;9.978;2023-02-28T07:55:01;10.80;;;9.70;;
77276;SDS011;66330;52.166;9.978;2023-02-28T07:57:26;9.10;;;8.20;;
77276;SDS011;66330;52.166;9.978;2023-02-28T07:59:52;11.37;;;10.33;;
77276;SDS011;66330;52.166;9.978;2023-02-28T08:02:18;13.90;;;8.40;;
77276;SDS011;66330;52.166;9.978;2023-02-28T08:04:44;10.67;;;9.60;;
77276;SDS011;66330;52.166;9.978;2023-02-28T08:07:12;10.00;;;8.20;;
77276;SDS011;66330;52.166;9.978;2023-02-28T08:09:38;8.67;;;7.27;;
77276;SDS011;66330;52.166;9.978;2023-02-28T08:12:04;8.67;;;7.87;;
77276;SDS011;66330;52.166;9.978;2023-02-28T08:14:30;7.80;;;7.10;;
77276;SDS011;66330;52.166;9.978;2023-02-28T08:16:57;8.20;;;7.40;;
77276;SDS011;66330;52.166;9.978;2023-02-28T08:19:23;8.10;;;7.30;;
77276;SDS011;66330;52.166;9.978;2023-02-28T08:21:48;8.30;;;7.50;;
77276;SDS011;66330;52.166;9.978;2023-02-28T08:24:14;8.13;;;7.33;;
77276;SDS011;66330;52.166;9.978;2023-02-28T08:26:39;6.27;;;5.67;;
77276;SDS011;66330;52.166;9.978;2023-02-28T08:29:05;7.00;;;6.30;;
77276;SDS011;66330;52.166;9.978;2023-02-28T08:31:32;6.93;;;6.33;;
77276;SDS011;66330;52.166;9.978;2023-02-28T08:33:58;7.37;;;6.67;;
77276;SDS011;66330;52.166;9.978;2023-02-28T08:36:25;6.77;;;5.97;;
77276;SDS011;66330;52.166;9.978;2023-02-28T08:38:51;6.30;;;5.40;;
77276;SDS011;66330;52.166;9.978;2023-02-28T08:41:17;7.47;;;6.77;;
77276;SDS011;66330;52.166;9.978;2023-02-28T08:43:43;7.10;;;5.80;;
77276;SDS011;66330;52.166;9.978;2023-02-28T08:46:10;6.33;;;5.70;;
77276;SDS011;66330;52.166;9.978;2023-02-28T08:48:37;6.60;;;5.63;;
77276;SDS011;66330;52.166;9.978;2023-02-28T08:51:04;7.20;;;6.40;;
77276;SDS011;66330;52.166;9.978;2023-02-28T08:53:32;7.37;;;6.77;;
77276;SDS011;66330;52.166;9.978;2023-02-28T08:56:03;6.90;;;6.17;;
77276;SDS011;66330;52.166;9.978;2023-02-28T08:58:30;6.70;;;5.90;;
77276;SDS011;66330;52.166;9.978;2023-02-28T09:00:56;6.90;;;5.67;;
77276;SDS011;66330;52.166;9.978;2023-02-28T09:03:22;6.30;;;5.80;;
77276;SDS011;66330;52.166;9.978;2023-02-28T09:06:01;8.63;;;7.67;;
77276;SDS011;66330;52.166;9.978;2023-02-28T09:08:28;6.97;;;6.37;;
77276;SDS011;66330;52.166;9.978;2023-02-28T09:10:55;8.03;;;7.33;;
77276;SDS011;66330;52.166;9.978;2023-02-28T09:13:22;7.40;;;6.70;;
77276;SDS011;66330;52.166;9.978;2023-02-28T09:15:51;6.40;;;5.80;;
77276;SDS011;66330;52.166;9.978;2023-02-28T09:18:17;6.20;;;5.67;;
77276;SDS011;66330;52.166;9.978;2023-02-28T09:20:44;5.97;;;5.47;;
77276;SDS011;66330;52.166;9.978;2023-02-28T09:23:11;7.50;;;6.10;;
77276;SDS011;66330;52.166;9.978;2023-02-28T09:25:37;7.93;;;7.17;;
77276;SDS011;66330;52.166;9.978;2023-02-28T09:28:09;6.33;;;5.67;;
77276;SDS011;66330;52.166;9.978;2023-02-28T09:30:36;12.30;;;10.90;;
77276;SDS011;66330;52.166;9.978;2023-02-28T09:33:02;7.10;;;6.40;;
77276;SDS011;66330;52.166;9.978;2023-02-28T09:35:28;6.10;;;5.60;;
77276;SDS011;66330;52.166;9.978;2023-02-28T09:37:55;5.80;;;5.20;;
77276;SDS011;66330;52.166;9.978;2023-02-28T09:40:24;7.63;;;5.27;;
77276;SDS011;66330;52.166;9.978;2023-02-28T09:42:51;8.00;;;7.30;;
77276;SDS011;66330;52.166;9.978;2023-02-28T09:45:24;9.03;;;8.23;;
77276;SDS011;66330;52.166;9.978;2023-02-28T09:47:54;8.87;;;8.03;;
77276;SDS011;66330;52.166;9.978;2023-02-28T09:52:51;4.00;;;3.70;;
77276;SDS011;66330;52.166;9.978;2023-02-28T09:55:26;4.67;;;4.27;;
77276;SDS011;66330;52.166;9.978;2023-02-28T09:57:56;5.40;;;4.50;;
77276;SDS011;66330;52.166;9.978;2023-02-28T10:00:28;5.30;;;4.77;;
77276;SDS011;66330;52.166;9.978;2023-02-28T10:08:21;4.37;;;3.97;;
77276;SDS011;66330;52.166;9.978;2023-02-28T10:10:57;4.57;;;4.17;;
77276;SDS011;66330;52.166;9.978;2023-02-28T10:13:29;4.60;;;4.17;;
77276;SDS011;66330;52.166;9.978;2023-02-28T10:16:15;5.23;;;4.63;;
77276;SDS011;66330;52.166;9.978;2023-02-28T10:18:51;3.83;;;3.60;;
77276;SDS011;66330;52.166;9.978;2023-02-28T10:21:29;7.13;;;4.40;;
77276;SDS011;66330;52.166;9.978;2023-02-28T10:24:05;4.60;;;4.20;;
77276;SDS011;66330;52.166;9.978;2023-02-28T10:26:36;4.80;;;4.30;;
77276;SDS011;66330;52.166;9.978;2023-02-28T10:29:02;4.70;;;4.30;;
77276;SDS011;66330;52.166;9.978;2023-02-28T10:31:28;4.63;;;4.23;;
77276;SDS011;66330;52.166;9.978;2023-02-28T10:33:54;5.00;;;4.30;;
77276;SDS011;66330;52.166;9.978;2023-02-28T10:36:20;4.17;;;3.60;;
77276;SDS011;66330;52.166;9.978;2023-02-28T10:38:47;4.40;;;4.00;;
77276;SDS011;66330;52.166;9.978;2023-02-28T10:41:14;5.53;;;4.00;;
77276;SDS011;66330;52.166;9.978;2023-02-28T10:43:42;3.80;;;3.30;;
77276;SDS011;66330;52.166;9.978;2023-02-28T10:48:43;3.67;;;3.37;;
77276;SDS011;66330;52.166;9.978;2023-02-28T10:51:13;4.67;;;3.60;;
77276;SDS011;66330;52.166;9.978;2023-02-28T10:53:53;5.57;;;3.90;;
77276;SDS011;66330;52.166;9.978;2023-02-28T10:56:21;4.90;;;3.63;;
77276;SDS011;66330;52.166;9.978;2023-02-28T10:58:59;3.30;;;2.70;;
77276;SDS011;66330;52.166;9.978;2023-02-28T11:03:55;4.10;;;3.00;;
77276;SDS011;66330;52.166;9.978;2023-02-28T11:06:23;3.10;;;2.90;;
77276;SDS011;66330;52.166;9.978;2023-02-28T11:09:06;3.33;;;3.03;;
77276;SDS011;66330;52.166;9.978;2023-02-28T11:11:42;4.37;;;3.60;;
77276;SDS011;66330;52.166;9.978;2023-02-28T11:14:20;3.70;;;3.40;;
77276;SDS011;66330;52.166;9.978;2023-02-28T11:16:46;3.43;;;3.13;;
77276;SDS011;66330;52.166;9.978;2023-02-28T11:19:18;3.27;;;3.07;;
77276;SDS011;66330;52.166;9.978;2023-02-28T11:21:53;3.40;;;3.10;;
77276;SDS011;66330;52.166;9.978;2023-02-28T11:24:27;3.40;;;3.10;;
77276;SDS011;66330;52.166;9.978;2023-02-28T11:26:54;4.40;;;3.07;;
77276;SDS011;66330;52.166;9.978;2023-02-28T11:29:22;3.07;;;2.87;;
77276;SDS011;66330;52.166;9.978;2023-02-28T11:32:10;3.30;;;2.57;;
77276;SDS011;66330;52.166;9.978;2023-02-28T11:34:59;3.17;;;2.53;;
77276;SDS011;66330;52.166;9.978;2023-02-28T11:37:27;2.77;;;2.57;;
77276;SDS011;66330;52.166;9.978;2023-02-28T11:39:54;3.77;;;3.47;;
77276;SDS011;66330;52.166;9.978;2023-02-28T11:59:02;2.80;;;2.50;;
77276;SDS011;66330;52.166;9.978;2023-02-28T12:04:47;3.50;;;3.20;;
77276;SDS011;66330;52.166;9.978;2023-02-28T12:07:37;5.20;;;4.70;;
77276;SDS011;66330;52.166;9.978;2023-02-28T12:15:28;8.73;;;7.93;;
77276;SDS011;66330;52.166;9.978;2023-02-28T12:23:43;3.17;;;2.87;;
77276;SDS011;66330;52.166;9.978;2023-02-28T12:26:36;3.03;;;2.60;;
77276;SDS011;66330;52.166;9.978;2023-02-28T12:34:32;2.60;;;2.40;;
77276;SDS011;66330;52.166;9.978;2023-02-28T12:37:04;2.77;;;2.57;;
77276;SDS011;66330;52.166;9.978;2023-02-28T12:39:36;2.77;;;2.57;;
77276;SDS011;66330;52.166;9.978;2023-02-28T12:42:09;3.13;;;2.87;;
77276;SDS011;66330;52.166;9.978;2023-02-28T12:44:52;3.80;;;2.90;;
77276;SDS011;66330;52.166;9.978;2023-02-28T12:47:40;4.07;;;3.20;;
77276;SDS011;66330;52.166;9.978;2023-02-28T12:50:11;3.60;;;3.13;;
77276;SDS011;66330;52.166;9.978;2023-02-28T13:00:38;3.10;;;2.90;;
77276;SDS011;66330;52.166;9.978;2023-02-28T13:09:04;3.63;;;3.33;;
77276;SDS011;66330;52.166;9.978;2023-02-28T13:11:43;3.13;;;2.90;;
77276;SDS011;66330;52.166;9.978;2023-02-28T13:14:18;2.63;;;2.43;;
77276;SDS011;66330;52.166;9.978;2023-02-28T13:19:17;3.13;;;2.93;;
77276;SDS011;66330;52.166;9.978;2023-02-28T13:21:46;2.97;;;2.77;;
77276;SDS011;66330;52.166;9.978;2023-02-28T13:24:35;3.10;;;2.83;;
77276;SDS011;66330;52.166;9.978;2023-02-28T13:34:33;4.13;;;3.80;;
77276;SDS011;66330;52.166;9.978;2023-02-28T13:39:52;3.73;;;3.37;;
77276;SDS011;66330;52.166;9.978;2023-02-28T14:06:32;2.67;;;2.47;;
77276;SDS011;66330;52.166;9.978;2023-02-28T14:09:01;4.80;;;3.50;;
77276;SDS011;66330;52.166;9.978;2023-02-28T14:14:02;3.80;;;3.60;;
77276;SDS011;66330;52.166;9.978;2023-02-28T14:16:37;4.67;;;4.27;;
77276;SDS011;66330;52.166;9.978;2023-02-28T14:19:12;3.63;;;3.33;;
77276;SDS011;66330;52.166;9.978;2023-02-28T14:22:00;3.57;;;3.37;;
77276;SDS011;66330;52.166;9.978;2023-02-28T14:35:05;3.67;;;2.90;;
77276;SDS011;66330;52.166;9.978;2023-02-28T14:37:51;4.43;;;4.00;;
77276;SDS011;66330;52.166;9.978;2023-02-28T14:40:29;3.87;;;3.57;;
77276;SDS011;66330;52.166;9.978;2023-02-28T14:43:04;4.47;;;4.17;;
77276;SDS011;66330;52.166;9.978;2023-02-28T14:45:32;4.97;;;3.70;;
77276;SDS011;66330;52.166;9.978;2023-02-28T14:48:02;3.90;;;3.50;;
77276;SDS011;66330;52.166;9.978;2023-02-28T14:50:34;3.30;;;3.10;;
77276;SDS011;66330;52.166;9.978;2023-02-28T14:53:02;3.93;;;3.63;;
77276;SDS011;66330;52.166;9.978;2023-02-28T14:55:32;3.63;;;3.20;;
77276;SDS011;66330;52.166;9.978;2023-02-28T14:58:01;3.90;;;3.60;;
77276;SDS011;66330;52.166;9.978;2023-02-28T15:00:33;7.23;;;6.57;;
77276;SDS011;66330;52.166;9.978;2023-02-28T15:03:17;4.63;;;4.10;;
77276;SDS011;66330;52.166;9.978;2023-02-28T15:05:56;4.10;;;3.73;;
77276;SDS011;66330;52.166;9.978;2023-02-28T15:08:24;3.80;;;3.50;;
77276;SDS011;66330;52.166;9.978;2023-02-28T15:33:22;3.47;;;3.27;;
77276;SDS011;66330;52.166;9.978;2023-02-28T15:35:50;4.00;;;3.70;;
77276;SDS011;66330;52.166;9.978;2023-02-28T15:46:36;6.03;;;5.43;;
77276;SDS011;66330;52.166;9.978;2023-02-28T15:49:17;5.47;;;4.80;;
77276;SDS011;66330;52.166;9.978;2023-02-28T15:51:45;6.03;;;5.63;;
77276;SDS011;66330;52.166;9.978;2023-02-28T15:54:15;7.20;;;6.60;;
77276;SDS011;66330;52.166;9.978;2023-02-28T15:56:46;5.50;;;5.00;;
77276;SDS011;66330;52.166;9.978;2023-02-28T15:59:17;6.63;;;6.03;;
77276;SDS011;66330;52.166;9.978;2023-02-28T16:01:45;4.10;;;3.70;;
77276;SDS011;66330;52.166;9.978;2023-02-28T16:04:15;5.27;;;4.77;;
77276;SDS011;66330;52.166;9.978;2023-02-28T16:06:46;5.40;;;4.40;;
77276;SDS011;66330;52.166;9.978;2023-02-28T16:09:16;6.90;;;6.30;;
77276;SDS011;66330;52.166;9.978;2023-02-28T16:11:46;4.97;;;4.47;;
77276;SDS011;66330;52.166;9.978;2023-02-28T16:14:18;5.30;;;4.90;;
77276;SDS011;66330;52.166;9.978;2023-02-28T16:16:50;4.83;;;4.43;;
77276;SDS011;66330;52.166;9.978;2023-02-28T16:19:18;5.40;;;4.93;;
77276;SDS011;66330;52.166;9.978;2023-02-28T16:21:44;6.00;;;5.40;;
77276;SDS011;66330;52.166;9.978;2023-02-28T16:24:10;6.90;;;6.30;;
77276;SDS011;66330;52.166;9.978;2023-02-28T16:26:36;6.23;;;5.63;;
77276;SDS011;66330;52.166;9.978;2023-02-28T16:29:04;7.17;;;6.57;;
77276;SDS011;66330;52.166;9.978;2023-02-28T16:31:32;5.50;;;5.00;;
77276;SDS011;66330;52.166;9.978;2023-02-28T16:34:01;5.70;;;5.20;;
77276;SDS011;66330;52.166;9.978;2023-02-28T16:36:28;8.30;;;7.60;;
77276;SDS011;66330;52.166;9.978;2023-02-28T16:38:55;6.53;;;5.90;;
77276;SDS011;66330;52.166;9.978;2023-02-28T16:41:22;6.97;;;5.47;;
77276;SDS011;66330;52.166;9.978;2023-02-28T16:43:51;5.60;;;5.10;;
77276;SDS011;66330;52.166;9.978;2023-02-28T16:46:19;7.17;;;4.97;;
77276;SDS011;66330;52.166;9.978;2023-02-28T16:48:46;4.93;;;4.50;;
77276;SDS011;66330;52.166;9.978;2023-02-28T16:51:16;4.70;;;4.17;;
77276;SDS011;66330;52.166;9.978;2023-02-28T16:53:42;5.90;;;5.40;;
77276;SDS011;66330;52.166;9.978;2023-02-28T16:56:17;5.13;;;4.73;;
77276;SDS011;66330;52.166;9.978;2023-02-28T16:58:45;6.00;;;5.50;;
77276;SDS011;66330;52.166;9.978;2023-02-28T17:01:12;6.13;;;5.53;;
77276;SDS011;66330;52.166;9.978;2023-02-28T17:03:38;6.93;;;6.23;;
77276;SDS011;66330;52.166;9.978;2023-02-28T17:06:05;6.20;;;5.60;;
77276;SDS011;66330;52.166;9.978;2023-02-28T17:08:41;6.83;;;6.20;;
77276;SDS011;66330;52.166;9.978;2023-02-28T17:11:07;5.57;;;5.10;;
77276;SDS011;66330;52.166;9.978;2023-02-28T17:13:33;7.03;;;6.33;;
77276;SDS011;66330;52.166;9.978;2023-02-28T17:15:59;7.03;;;6.33;;
77276;SDS011;66330;52.166;9.978;2023-02-28T17:18:25;6.77;;;6.17;;
77276;SDS011;66330;52.166;9.978;2023-02-28T17:20:58;7.70;;;7.00;;
77276;SDS011;66330;52.166;9.978;2023-02-28T17:23:24;7.50;;;6.70;;
77276;SDS011;66330;52.166;9.978;2023-02-28T17:25:50;7.17;;;6.47;;
77276;SDS011;66330;52.166;9.978;2023-02-28T17:28:22;6.73;;;6.03;;
77276;SDS011;66330;52.166;9.978;2023-02-28T17:30:48;8.10;;;6.93;;
77276;SDS011;66330;52.166;9.978;2023-02-28T17:33:14;7.50;;;6.90;;
77276;SDS011;66330;52.166;9.978;2023-02-28T17:35:40;7.97;;;7.17;;
77276;SDS011;66330;52.166;9.978;2023-02-28T17:38:12;7.00;;;6.50;;
77276;SDS011;66330;52.166;9.978;2023-02-28T17:40:43;8.03;;;7.33;;
77276;SDS011;66330;52.166;9.978;2023-02-28T17:43:08;8.33;;;7.07;;
77276;SDS011;66330;52.166;9.978;2023-02-28T17:45:34;7.27;;;6.63;;
77276;SDS011;66330;52.166;9.978;2023-02-28T17:48:00;7.70;;;7.00;;
77276;SDS011;66330;52.166;9.978;2023-02-28T17:50:26;6.73;;;6.13;;
77276;SDS011;66330;52.166;9.978;2023-02-28T17:52:52;6.90;;;6.20;;
77276;SDS011;66330;52.166;9.978;2023-02-28T17:55:18;7.67;;;6.93;;
77276;SDS011;66330;52.166;9.978;2023-02-28T17:57:46;7.47;;;6.70;;
77276;SDS011;66330;52.166;9.978;2023-02-28T18:00:12;12.30;;;6.40;;
77276;SDS011;66330;52.166;9.978;2023-02-28T18:02:40;7.40;;;6.67;;
77276;SDS011;66330;52.166;9.978;2023-02-28T18:05:07;8.83;;;6.17;;
77276;SDS011;66330;52.166;9.978;2023-02-28T18:07:32;8.73;;;6.70;;
77276;SDS011;66330;52.166;9.978;2023-02-28T18:09:59;7.90;;;6.13;;
77276;SDS011;66330;52.166;9.978;2023-02-28T18:12:24;8.13;;;6.70;;